Time;durP1;ratioP1;P1;durP2;ratioP2;P2;SDS_P1;SDS_P2;PMS_P1;PMS_P2;Temp;Humidity;BMP_temperature;BMP_pressure;BME280_temperature;BME280_humidity;BME280_pressure;Samples;Min_cycle;Max_cycle;Signal;HPM_P1;HPM_P2
2022/01/24 00:01:41;;;;;;;6.88;3.72;;;;;;;13.07;41.61;97898.88;5133711;28;20106;-33
2022/01/24 00:04:08;;;;;;;5.72;3.33;;;;;;;13.11;41.73;97889.47;5133543;28;20056;-31
2022/01/24 00:06:34;;;;;;;3.90;2.80;;;;;;;13.01;42.05;97890.38;5133891;28;20530;-31
2022/01/24 00:09:04;;;;;;;3.63;3.17;;;;;;;13.09;41.52;97891.06;5133605;28;20040;-31
2022/01/24 00:11:41;;;;;;;4.13;2.85;;;;;;;13.14;41.28;97894.13;5134242;28;20072;-31
2022/01/24 00:27:20;;;;;;;5.63;3.30;;;;;;;13.09;41.86;97880.94;5135386;27;20030;-31
2022/01/24 00:29:46;;;;;;;5.63;3.00;;;;;;;13.07;41.75;97880.59;5137442;27;20019;-31
2022/01/24 00:32:11;;;;;;;4.72;3.40;;;;;;;13.12;41.56;97866.50;5137536;27;20046;-31
2022/01/24 00:34:37;;;;;;;5.93;2.90;;;;;;;13.16;41.31;97872.72;5137467;27;20027;-31
2022/01/24 00:37:03;;;;;;;4.20;3.13;;;;;;;13.15;41.71;97867.66;5137732;27;20015;-30
2022/01/24 00:39:28;;;;;;;4.15;3.05;;;;;;;13.12;41.55;97880.13;5137706;27;20027;-31
2022/01/24 00:44:50;;;;;;;4.95;3.08;;;;;;;13.12;41.76;97880.13;5137166;27;20066;-31
2022/01/24 00:47:27;;;;;;;7.00;3.47;;;;;;;13.09;41.63;97874.72;5137316;27;20076;-31
2022/01/24 00:55:18;;;;;;;5.40;3.20;;;;;;;13.09;41.61;97864.63;5137420;27;20502;-31
2022/01/24 00:57:43;;;;;;;5.53;3.00;;;;;;;13.13;41.42;97876.22;5136703;27;20027;-31
2022/01/24 01:00:09;;;;;;;4.63;3.05;;;;;;;13.15;41.80;97876.63;5136896;27;20027;-31
2022/01/24 01:02:35;;;;;;;4.15;3.20;;;;;;;13.17;41.51;97882.44;5136710;27;20022;-31
2022/01/24 01:05:37;;;;;;;4.45;3.35;;;;;;;13.11;41.54;97878.56;5137364;27;20027;-31
2022/01/24 01:18:53;;;;;;;5.90;3.70;;;;;;;13.10;41.54;97877.06;5051178;28;20039;-31
2022/01/24 01:21:19;;;;;;;4.85;3.45;;;;;;;13.07;41.65;97869.69;5052834;28;20486;-31
2022/01/24 01:23:53;;;;;;;5.38;3.45;;;;;;;13.10;41.40;97871.59;5053181;28;20040;-31
2022/01/24 01:26:35;;;;;;;5.00;3.33;;;;;;;13.05;41.21;97863.88;5053148;28;20523;-31
2022/01/24 01:29:16;;;;;;;5.18;3.08;;;;;;;13.11;41.34;97854.06;5053390;28;20112;-31
2022/01/24 01:31:51;;;;;;;6.30;3.42;;;;;;;13.16;41.04;97858.31;5052972;28;20146;-31
2022/01/24 01:55:42;;;;;;;4.90;3.65;;;;;;;13.07;40.58;97849.84;5136394;27;20447;-32
2022/01/24 01:58:13;;;;;;;6.63;3.35;;;;;;;13.06;40.78;97851.03;5135512;27;20544;-31
2022/01/24 02:00:46;;;;;;;3.45;2.83;;;;;;;13.02;40.70;97842.13;5135795;27;20029;-31
2022/01/24 02:03:12;;;;;;;8.07;3.70;;;;;;;13.02;40.60;97831.22;5135852;27;20434;-32
2022/01/24 02:05:37;;;;;;;4.57;2.83;;;;;;;13.09;40.18;97839.31;5135762;27;20069;-31
2022/01/24 02:08:04;;;;;;;4.32;2.92;;;;;;;13.02;40.01;97826.56;5135454;27;20066;-32
2022/01/24 02:10:32;;;;;;;4.63;3.42;;;;;;;13.00;40.29;97831.63;5135500;27;20027;-31
2022/01/24 02:12:57;;;;;;;4.30;3.28;;;;;;;13.00;40.00;97825.41;5135501;27;20023;-31
2022/01/24 02:15:31;;;;;;;6.30;3.13;;;;;;;13.13;39.79;97832.63;5135354;27;20045;-31
2022/01/24 02:21:06;;;;;;;5.68;2.97;;;;;;;12.90;40.16;97824.38;5135661;27;20027;-31
2022/01/24 02:25:57;;;;;;;4.00;2.88;;;;;;;13.05;39.34;97828.47;5135115;27;20441;-31
2022/01/24 02:28:24;;;;;;;3.63;2.75;;;;;;;12.96;39.84;97822.75;5135344;27;20097;-31
2022/01/24 02:33:36;;;;;;;4.32;3.10;;;;;;;12.93;39.99;97827.06;5135514;27;20038;-31
2022/01/24 02:36:02;;;;;;;5.13;3.00;;;;;;;13.01;39.53;97829.69;5134916;27;20015;-31
2022/01/24 02:39:01;;;;;;;3.90;2.58;;;;;;;13.04;39.40;97824.19;5135055;27;20055;-31
2022/01/24 02:49:38;;;;;;;4.97;3.08;;;;;;;12.92;39.30;97816.56;5134571;27;20580;-32
2022/01/24 02:52:14;;;;;;;4.88;3.03;;;;;;;13.01;39.48;97824.22;5134839;27;20110;-31
2022/01/24 02:54:41;;;;;;;4.15;3.05;;;;;;;12.98;39.25;97814.94;5134814;27;20030;-31
2022/01/24 02:57:08;;;;;;;6.60;3.05;;;;;;;12.97;39.19;97816.13;5134552;27;20486;-31
2022/01/24 02:59:35;;;;;;;4.85;3.10;;;;;;;12.98;38.72;97817.69;5134530;27;20134;-31
2022/01/24 03:02:02;;;;;;;4.10;2.88;;;;;;;13.04;38.83;97813.31;5134460;27;20045;-31
2022/01/24 03:04:27;;;;;;;5.95;3.05;;;;;;;12.89;39.30;97811.94;5115922;27;20042;-31
2022/01/24 03:06:53;;;;;;;4.93;3.33;;;;;;;12.97;38.85;97805.25;5134708;27;20015;-31
2022/01/24 03:09:22;;;;;;;4.13;2.88;;;;;;;13.04;39.01;97810.59;5134752;27;20163;-31
2022/01/24 03:14:16;;;;;;;4.30;2.85;;;;;;;12.96;38.73;97811.88;5134381;27;20455;-31
2022/01/24 03:16:42;;;;;;;4.30;2.75;;;;;;;12.89;38.75;97809.22;5134367;27;20023;-31
2022/01/24 03:19:07;;;;;;;5.45;3.08;;;;;;;12.94;38.98;97815.00;5134488;27;20025;-33
2022/01/24 03:21:33;;;;;;;4.10;2.90;;;;;;;12.90;38.80;97813.47;5134213;27;20027;-31
2022/01/24 03:23:59;;;;;;;4.47;3.17;;;;;;;12.89;38.78;97806.47;5134440;27;20046;-31
2022/01/24 03:26:24;;;;;;;4.32;2.90;;;;;;;12.86;38.67;97808.06;5134281;27;20550;-31
2022/01/24 03:28:50;;;;;;;4.53;2.80;;;;;;;12.82;38.63;97803.88;5115775;27;20391;-30
2022/01/24 03:31:15;;;;;;;5.32;2.85;;;;;;;12.92;38.56;97805.69;5134103;27;20356;-31
2022/01/24 03:33:41;;;;;;;3.80;2.58;;;;;;;12.98;38.57;97798.63;5134383;27;20019;-31
2022/01/24 03:36:06;;;;;;;4.40;2.50;;;;;;;13.03;38.20;97809.03;5134054;27;20019;-31
2022/01/24 03:38:32;;;;;;;4.10;2.63;;;;;;;13.00;38.53;97807.13;5115704;28;20381;-31
2022/01/24 03:40:57;;;;;;;4.55;2.95;;;;;;;12.97;38.53;97812.63;5133978;28;20023;-31
2022/01/24 03:43:23;;;;;;;5.80;2.95;;;;;;;12.93;38.42;97813.44;5134066;28;20068;-31
2022/01/24 03:46:09;;;;;;;5.63;3.20;;;;;;;12.94;38.52;97819.66;5115585;28;20051;-31
2022/01/24 03:48:40;;;;;;;4.25;2.72;;;;;;;12.99;37.94;97815.69;5133876;28;20088;-31
2022/01/24 03:51:06;;;;;;;4.90;3.17;;;;;;;12.87;38.27;97809.63;5133936;28;20111;-31
2022/01/24 03:53:33;;;;;;;4.38;2.80;;;;;;;13.00;38.40;97814.53;5133972;28;20457;-31
2022/01/24 03:55:58;;;;;;;4.30;2.55;;;;;;;12.97;37.92;97813.41;5134283;28;20015;-31
2022/01/24 03:58:23;;;;;;;4.63;2.95;;;;;;;12.94;37.80;97814.22;5133857;28;20073;-31
2022/01/24 04:00:49;;;;;;;5.07;3.20;;;;;;;13.00;37.98;97811.78;5133901;27;20352;-31
2022/01/24 04:03:15;;;;;;;7.13;3.10;;;;;;;12.95;37.96;97807.59;5118755;27;20034;-31
2022/01/24 04:05:42;;;;;;;5.13;3.17;;;;;;;12.94;38.14;97804.09;5137908;27;20034;-31
2022/01/24 04:08:08;;;;;;;5.53;2.97;;;;;;;13.00;37.89;97809.84;5138155;27;20019;-31
2022/01/24 04:10:49;;;;;;;4.30;3.10;;;;;;;13.03;37.80;97802.81;5137852;27;20059;-31
2022/01/24 04:15:59;;;;;;;4.05;2.75;;;;;;;13.00;37.93;97804.41;5137983;27;20030;-31
2022/01/24 04:23:38;;;;;;;5.28;2.88;;;;;;;12.97;37.94;97807.19;5138103;27;20065;-31
2022/01/24 04:26:04;;;;;;;6.53;2.95;;;;;;;12.98;37.57;97806.78;5137785;27;20034;-32
2022/01/24 04:28:29;;;;;;;4.50;3.03;;;;;;;12.91;37.61;97804.13;5119359;27;20031;-31
2022/01/24 04:30:55;;;;;;;6.28;3.15;;;;;;;12.98;37.73;97814.19;5119302;27;20079;-31
2022/01/24 04:33:20;;;;;;;5.18;3.05;;;;;;;12.92;37.67;97817.34;5137551;27;20099;-31
2022/01/24 04:35:46;;;;;;;4.05;3.00;;;;;;;12.87;37.52;97817.00;5137098;27;20028;-31
2022/01/24 04:38:11;;;;;;;4.93;3.03;;;;;;;12.94;37.57;97811.50;5137337;27;20027;-31
2022/01/24 04:40:37;;;;;;;5.55;3.40;;;;;;;12.90;37.84;97811.53;5137528;27;20026;-31
2022/01/24 04:43:25;;;;;;;4.88;2.88;;;;;;;12.86;37.27;97818.19;5137168;27;20038;-31
2022/01/24 04:46:43;;;;;;;5.10;3.10;;;;;;;12.93;37.39;97815.41;5137054;27;20035;-31
2022/01/24 04:56:30;;;;;;;5.70;3.10;;;;;;;12.93;37.36;97796.34;5136931;27;20023;-31
2022/01/24 04:58:56;;;;;;;4.95;3.00;;;;;;;12.86;37.59;97808.06;5136871;27;20047;-31
2022/01/24 05:01:22;;;;;;;3.60;2.38;;;;;;;12.90;37.22;97803.34;5118395;27;20054;-31
2022/01/24 05:03:48;;;;;;;4.53;2.78;;;;;;;12.93;37.36;97801.78;5136870;27;20466;-35
2022/01/24 05:06:13;;;;;;;5.75;2.97;;;;;;;12.96;37.19;97800.97;5136730;27;20035;-35
2022/01/24 05:08:39;;;;;;;5.10;2.85;;;;;;;12.98;37.16;97803.28;5136914;27;20023;-32
2022/01/24 05:11:09;;;;;;;4.47;2.88;;;;;;;12.85;37.24;97805.78;5136886;27;20100;-33
2022/01/24 05:24:18;;;;;;;4.90;3.00;;;;;;;12.93;36.89;97813.44;5136617;27;20026;-32
2022/01/24 05:26:44;;;;;;;5.68;3.20;;;;;;;12.98;36.58;97811.47;5136349;27;20410;-31
2022/01/24 05:29:09;;;;;;;5.93;3.03;;;;;;;12.80;36.97;97809.72;5136676;27;20075;-32
2022/01/24 05:31:35;;;;;;;4.75;2.90;;;;;;;12.82;36.77;97806.59;5136326;27;20037;-31
2022/01/24 05:34:00;;;;;;;4.40;2.72;;;;;;;12.92;37.00;97811.13;5136314;27;20034;-31
2022/01/24 05:36:26;;;;;;;4.45;2.95;;;;;;;12.83;37.05;97802.69;5136313;27;20069;-31
2022/01/24 05:38:51;;;;;;;5.35;2.80;;;;;;;12.87;37.15;97806.88;5136171;27;20034;-31
2022/01/24 05:41:17;;;;;;;4.53;3.00;;;;;;;12.83;36.68;97799.97;5136454;27;20023;-31
2022/01/24 05:43:43;;;;;;;5.85;2.75;;;;;;;12.84;37.01;97805.00;5136213;27;20027;-31
2022/01/24 05:46:09;;;;;;;4.65;2.95;;;;;;;12.75;37.24;97807.44;5136110;27;20065;-31
2022/01/24 05:48:34;;;;;;;5.22;3.08;;;;;;;12.83;37.10;97808.13;5135982;27;20101;-31
2022/01/24 05:51:00;;;;;;;4.68;3.13;;;;;;;12.89;36.95;97812.72;5117445;27;20486;-31
2022/01/24 05:53:25;;;;;;;4.03;2.55;;;;;;;12.90;36.75;97813.47;5136021;27;20034;-31
2022/01/24 05:55:51;;;;;;;4.25;2.45;;;;;;;12.83;36.81;97814.34;5135817;27;20019;-31
2022/01/24 05:58:16;;;;;;;5.72;3.05;;;;;;;12.84;36.59;97809.69;5135651;27;20077;-31
2022/01/24 06:00:42;;;;;;;5.78;2.80;;;;;;;12.94;36.84;97811.50;5135775;27;20482;-31
2022/01/24 06:03:07;;;;;;;5.03;2.55;;;;;;;12.95;36.53;97818.47;5117061;27;20031;-31
2022/01/24 06:05:33;;;;;;;4.93;2.75;;;;;;;12.93;36.96;97818.13;5135933;27;20072;-31
2022/01/24 06:07:58;;;;;;;4.97;3.17;;;;;;;12.90;36.49;97819.69;5135707;27;20040;-31
2022/01/24 06:10:24;;;;;;;4.25;3.03;;;;;;;12.90;36.83;97818.91;5133511;27;20100;-32
2022/01/24 06:12:50;;;;;;;4.32;2.72;;;;;;;12.87;36.54;97815.06;5122400;27;20786;-31
2022/01/24 06:15:16;;;;;;;5.72;2.92;;;;;;;12.87;36.72;97811.56;5133519;27;20027;-31
2022/01/24 06:17:41;;;;;;;5.85;3.15;;;;;;;12.91;36.57;97825.91;5117151;27;20103;-31
2022/01/24 06:20:08;;;;;;;3.97;2.90;;;;;;;12.87;36.70;97819.72;5112864;28;20360;-31
2022/01/24 06:22:38;;;;;;;4.95;2.88;;;;;;;12.89;36.39;97822.81;5112555;28;20467;-31
2022/01/24 06:25:05;;;;;;;5.32;2.88;;;;;;;12.88;36.75;97822.06;5112637;28;20035;-32
2022/01/24 06:27:31;;;;;;;4.47;2.95;;;;;;;12.89;36.72;97823.59;5112808;28;20027;-31
2022/01/24 06:29:56;;;;;;;7.22;2.88;;;;;;;12.87;36.63;97825.94;5129690;27;20561;-31
2022/01/24 06:32:22;;;;;;;4.80;2.97;;;;;;;12.91;36.43;97823.19;5133314;27;20019;-31
2022/01/24 06:34:47;;;;;;;4.18;2.70;;;;;;;12.89;36.61;97825.53;5132708;27;20030;-31
2022/01/24 06:37:13;;;;;;;4.45;2.63;;;;;;;12.99;36.27;97821.16;5133167;27;20023;-33
2022/01/24 06:39:38;;;;;;;6.68;3.05;;;;;;;12.85;36.47;97817.44;5133018;27;20085;-31
2022/01/24 06:42:14;;;;;;;5.97;3.47;;;;;;;12.87;36.56;97814.28;5130851;27;20030;-31
2022/01/24 06:44:40;;;;;;;4.93;2.63;;;;;;;12.88;36.71;97816.59;5114377;27;20031;-31
2022/01/24 06:47:07;;;;;;;5.60;3.17;;;;;;;12.87;36.22;97819.72;5114283;27;20029;-31
2022/01/24 06:49:34;;;;;;;4.57;2.88;;;;;;;12.83;36.29;97810.84;5129600;27;20019;-31
2022/01/24 06:51:59;;;;;;;7.18;4.95;;;;;;;11.99;37.36;97816.00;5114177;28;20064;-31
2022/01/24 06:54:25;;;;;;;9.30;6.47;;;;;;;12.26;37.02;97813.41;5114042;28;20468;-32
2022/01/24 06:56:51;;;;;;;7.90;5.90;;;;;;;12.40;36.49;97819.47;5114489;28;20031;-31
2022/01/24 06:59:16;;;;;;;8.77;6.28;;;;;;;12.59;36.31;97827.06;5095343;28;20039;-32
2022/01/24 07:01:41;;;;;;;10.00;5.80;;;;;;;12.62;36.40;97830.13;5113988;28;20036;-32
2022/01/24 07:04:08;;;;;;;7.95;5.28;;;;;;;12.64;36.77;97835.94;5114010;28;20134;-31
2022/01/24 07:06:33;;;;;;;7.85;4.88;;;;;;;12.65;36.93;97832.06;5114377;28;20102;-31
2022/01/24 07:09:03;;;;;;;6.80;4.68;;;;;;;12.74;36.07;97830.38;5114012;28;20046;-31
2022/01/24 07:11:29;;;;;;;7.22;4.60;;;;;;;12.78;36.77;97843.97;5113971;28;20094;-32
2022/01/24 07:13:54;;;;;;;7.63;4.82;;;;;;;12.75;36.34;97844.75;5113917;28;20406;-31
2022/01/24 07:16:20;;;;;;;5.93;4.80;;;;;;;12.72;36.74;97842.88;5113738;28;20023;-31
2022/01/24 07:18:58;;;;;;;6.75;3.92;;;;;;;12.69;36.91;97841.72;5113884;28;20444;-31
2022/01/24 07:21:24;;;;;;;7.45;4.32;;;;;;;12.66;37.07;97841.75;5113706;28;20030;-31
2022/01/24 07:23:49;;;;;;;5.45;4.18;;;;;;;12.73;36.81;97833.53;5113732;28;20019;-32
2022/01/24 07:26:15;;;;;;;5.97;4.30;;;;;;;11.81;37.94;97837.88;5113963;28;20032;-32
2022/01/24 07:28:40;;;;;;;6.95;3.50;;;;;;;11.72;39.87;97841.03;5113752;28;20035;-31
2022/01/24 07:31:06;;;;;;;8.07;3.70;;;;;;;11.96;39.17;97838.53;5113210;28;20024;-31
2022/01/24 07:33:32;;;;;;;6.35;3.33;;;;;;;12.20;38.61;97845.72;5113775;28;20022;-31
2022/01/24 07:35:57;;;;;;;5.53;3.53;;;;;;;12.39;37.92;97849.81;5112928;28;20463;-31
2022/01/24 07:38:23;;;;;;;4.72;2.90;;;;;;;12.51;37.89;97847.34;5113261;28;20043;-31
2022/01/24 07:40:50;;;;;;;4.38;3.20;;;;;;;12.65;37.45;97851.88;5113512;28;20031;-32
2022/01/24 07:43:16;;;;;;;4.13;2.75;;;;;;;12.41;37.86;97840.06;5113434;28;20092;-31
2022/01/24 07:45:45;;;;;;;6.07;3.65;;;;;;;11.84;39.52;97846.00;5113542;28;20078;-32
2022/01/24 07:48:12;;;;;;;5.53;3.30;;;;;;;12.26;38.54;97854.19;5113872;28;20028;-32
2022/01/24 07:50:40;;;;;;;7.43;3.30;;;;;;;12.43;38.06;97856.00;5113907;28;20116;-32
2022/01/24 07:53:07;;;;;;;6.53;3.13;;;;;;;12.49;37.55;97849.69;5094965;28;20012;-32
2022/01/24 07:55:34;;;;;;;4.97;3.13;;;;;;;12.54;37.57;97856.66;5113228;28;20064;-31
2022/01/24 07:58:00;;;;;;;5.95;3.08;;;;;;;12.19;38.13;97858.53;5113326;28;20048;-31
2022/01/24 08:00:25;;;;;;;4.60;3.10;;;;;;;12.50;38.03;97856.69;5113509;28;20050;-31
2022/01/24 08:02:51;;;;;;;7.22;3.08;;;;;;;12.57;37.59;97867.50;5113372;28;20024;-31
2022/01/24 08:05:17;;;;;;;3.70;2.50;;;;;;;12.62;37.64;97868.22;5113382;28;20031;-32
2022/01/24 08:07:42;;;;;;;4.03;2.65;;;;;;;12.51;37.71;97869.13;5113273;28;20027;-31
2022/01/24 08:10:09;;;;;;;5.65;2.75;;;;;;;12.48;37.93;97866.44;5113338;28;20087;-31
2022/01/24 08:12:35;;;;;;;4.75;2.58;;;;;;;12.54;37.91;97870.25;5113307;28;20353;-33
2022/01/24 08:15:03;;;;;;;5.47;2.45;;;;;;;12.65;37.63;97870.94;5113454;28;20460;-31
2022/01/24 08:17:29;;;;;;;4.72;2.40;;;;;;;12.59;37.68;97862.44;5113176;28;20472;-32
2022/01/24 08:19:56;;;;;;;5.10;2.83;;;;;;;12.53;37.75;97861.31;5113094;28;20041;-31
2022/01/24 08:22:21;;;;;;;4.32;2.25;;;;;;;12.67;37.50;97867.81;5113041;28;20084;-31
2022/01/24 08:24:49;;;;;;;4.90;3.05;;;;;;;12.61;38.02;97872.16;5113068;28;20016;-32
2022/01/24 08:27:15;;;;;;;5.53;2.42;;;;;;;12.37;38.39;97868.47;5113191;28;20463;-31
2022/01/24 08:29:43;;;;;;;5.03;2.60;;;;;;;12.62;37.73;97868.22;5113176;28;20468;-31
2022/01/24 08:32:09;;;;;;;6.53;2.50;;;;;;;12.68;37.90;97867.41;5113156;28;20024;-33
2022/01/24 08:34:35;;;;;;;4.10;2.65;;;;;;;12.58;38.04;97873.72;5113053;28;20103;-32
2022/01/24 08:37:01;;;;;;;3.97;2.78;;;;;;;12.21;38.67;97871.75;5113061;28;20019;-31
2022/01/24 08:39:26;;;;;;;4.32;2.40;;;;;;;12.21;38.74;97872.53;5112929;28;20027;-32
2022/01/24 08:46:45;;;;;;;7.60;2.58;;;;;;;12.36;38.35;97889.50;5128364;28;20057;-31
2022/01/24 08:49:10;;;;;;;3.45;2.38;;;;;;;12.06;38.95;97887.41;5134216;27;20031;-32
2022/01/24 08:51:36;;;;;;;4.97;2.10;;;;;;;12.18;39.01;97899.75;5134225;27;20386;-31
2022/01/24 08:54:05;;;;;;;4.55;2.20;;;;;;;12.47;37.93;97900.28;5136310;27;20027;-31
2022/01/24 08:56:31;;;;;;;3.22;2.10;;;;;;;12.24;38.83;97888.00;5137000;27;20118;-33
2022/01/24 08:58:56;;;;;;;5.00;2.50;;;;;;;12.12;38.74;97893.16;5136916;27;20055;-31
2022/01/24 09:01:22;;;;;;;3.90;2.42;;;;;;;12.38;38.66;97884.41;5136522;27;20027;-31
2022/01/24 09:03:47;;;;;;;4.47;2.28;;;;;;;12.47;38.12;97894.84;5136483;27;20023;-32
2022/01/24 09:06:17;;;;;;;3.25;2.20;;;;;;;12.50;38.58;97900.22;5136671;27;20030;-31
2022/01/24 09:08:42;;;;;;;3.72;2.30;;;;;;;12.42;38.28;97898.75;5136682;27;20439;-31
2022/01/24 09:11:08;;;;;;;6.05;2.67;;;;;;;12.17;39.00;97898.19;5136985;27;20058;-31
2022/01/24 09:13:34;;;;;;;6.20;2.50;;;;;;;12.09;39.21;97899.44;5136743;27;20023;-31
2022/01/24 09:16:00;;;;;;;4.32;2.30;;;;;;;12.41;38.40;97902.66;5136618;27;20509;-32
2022/01/24 09:18:27;;;;;;;6.85;2.42;;;;;;;12.34;38.76;97899.22;5136467;27;20023;-31
2022/01/24 09:20:53;;;;;;;4.63;2.50;;;;;;;12.47;38.44;97901.06;5136584;27;20015;-32
2022/01/24 09:23:19;;;;;;;5.07;2.50;;;;;;;12.44;38.41;97904.56;5136530;27;20023;-31
2022/01/24 09:25:45;;;;;;;6.65;2.50;;;;;;;12.48;38.10;97901.81;5136621;27;20371;-31
2022/01/24 09:28:11;;;;;;;4.53;2.50;;;;;;;12.58;38.53;97909.88;5136601;27;20026;-31
2022/01/24 09:30:36;;;;;;;6.60;2.55;;;;;;;12.58;38.00;97904.44;5136624;27;20489;-31
2022/01/24 09:33:02;;;;;;;5.75;3.10;;;;;;;12.58;38.07;97907.16;5136497;27;20079;-33
2022/01/24 09:35:28;;;;;;;4.82;2.85;;;;;;;12.64;38.00;97909.44;5117872;27;20049;-32
2022/01/24 09:37:55;;;;;;;5.28;3.38;;;;;;;12.70;38.21;97911.31;5136491;27;20023;-31
2022/01/24 09:40:22;;;;;;;7.00;3.55;;;;;;;12.26;38.85;97911.31;5136204;27;20023;-32
2022/01/24 09:42:48;;;;;;;8.95;4.45;;;;;;;12.06;39.38;97916.53;5135800;27;20478;-31
2022/01/24 09:45:16;;;;;;;8.23;4.22;;;;;;;12.30;38.61;97910.13;5136175;27;20049;-31
2022/01/24 09:47:42;;;;;;;8.20;4.75;;;;;;;11.73;39.80;97923.34;5136056;27;20022;-32
2022/01/24 09:50:10;;;;;;;8.05;4.03;;;;;;;12.22;38.68;97922.25;5136036;27;20094;-32
2022/01/24 09:52:44;;;;;;;8.10;3.88;;;;;;;12.46;37.96;97923.22;5136137;27;20098;-33
2022/01/24 09:55:10;;;;;;;9.57;5.28;;;;;;;12.63;38.06;97925.00;5117557;27;20051;-32
2022/01/24 09:57:37;;;;;;;10.75;4.35;;;;;;;12.66;37.68;97928.84;5135637;27;20023;-32
2022/01/24 10:00:06;;;;;;;8.52;4.38;;;;;;;12.21;38.24;97929.63;5135098;27;20049;-32
2022/01/24 10:02:31;;;;;;;8.23;4.30;;;;;;;12.34;38.33;97935.38;5135694;27;20360;-31
2022/01/24 10:05:19;;;;;;;9.95;5.25;;;;;;;12.40;38.10;97936.47;5135877;27;20068;-32
2022/01/24 10:07:57;;;;;;;9.05;4.70;;;;;;;12.31;38.71;97938.88;5135878;27;20080;-31
2022/01/24 10:10:38;;;;;;;8.02;4.78;;;;;;;12.31;38.15;97935.38;5134855;27;20023;-31
2022/01/24 10:16:44;;;;;;;7.30;4.40;;;;;;;12.28;38.18;97934.22;5135392;27;20038;-31
2022/01/24 10:19:19;;;;;;;8.43;4.75;;;;;;;12.54;37.41;97928.19;5124258;27;20027;-32
2022/01/24 10:21:49;;;;;;;9.48;4.32;;;;;;;12.49;37.66;97931.31;5135185;27;20031;-31
2022/01/24 10:24:33;;;;;;;6.88;3.97;;;;;;;12.30;38.30;97940.06;5135427;27;20023;-33
2022/01/24 10:27:18;;;;;;;8.15;4.30;;;;;;;12.37;38.06;97933.75;5135336;27;20026;-32
2022/01/24 10:30:02;;;;;;;8.35;4.53;;;;;;;12.36;38.13;97933.03;5135080;27;20109;-31
2022/01/24 10:32:40;;;;;;;4.95;3.03;;;;;;;12.16;37.08;97927.34;5135033;27;20528;-33
2022/01/24 10:35:31;;;;;;;5.82;2.92;;;;;;;12.00;38.63;97931.72;5135145;27;20084;-33
2022/01/24 10:39:05;;;;;;;5.45;3.50;;;;;;;12.12;38.15;97925.81;5134988;27;20382;-32
2022/01/24 10:41:24;;;;;;;6.53;3.40;;;;;;;12.50;37.49;97927.44;5129030;27;20479;-33
2022/01/24 10:43:56;;;;;;;6.35;2.78;;;;;;;12.33;37.41;97928.38;5135354;27;20019;-32
2022/01/24 10:46:27;;;;;;;5.10;3.00;;;;;;;12.39;37.26;97934.91;5135367;27;20474;-32
2022/01/24 10:49:04;;;;;;;5.97;3.13;;;;;;;12.18;37.71;97937.81;5134928;27;20027;-32
2022/01/24 10:51:38;;;;;;;5.90;3.08;;;;;;;12.14;37.80;97934.34;5135009;27;20023;-32
2022/01/24 10:54:04;;;;;;;5.03;3.10;;;;;;;12.16;38.15;97937.44;5135054;27;20031;-31
2022/01/24 10:56:42;;;;;;;5.13;2.63;;;;;;;12.36;38.09;97933.03;5134837;27;20109;-31
2022/01/24 10:59:24;;;;;;;4.00;2.40;;;;;;;12.30;37.68;97929.16;5134385;27;20046;-32
2022/01/24 11:01:54;;;;;;;4.85;3.05;;;;;;;12.60;37.18;97925.81;5134766;27;20072;-31
2022/01/24 11:04:22;;;;;;;6.38;2.72;;;;;;;12.69;37.11;97930.78;5134982;27;20105;-31
2022/01/24 11:07:02;;;;;;;4.53;2.63;;;;;;;12.66;37.54;97928.84;5134697;27;20026;-34
2022/01/24 11:09:35;;;;;;;4.95;3.22;;;;;;;12.54;38.01;97930.91;5134454;27;20471;-32
2022/01/24 11:12:06;;;;;;;4.45;2.35;;;;;;;12.59;37.36;97930.47;5134551;27;20429;-32
2022/01/24 11:14:32;;;;;;;3.13;2.00;;;;;;;12.29;36.51;97933.06;5116210;27;20035;-31
2022/01/24 11:16:59;;;;;;;3.60;2.15;;;;;;;12.35;37.55;97931.47;5115931;27;20019;-31
2022/01/24 11:19:35;;;;;;;4.47;2.63;;;;;;;12.21;37.20;97926.16;5134602;27;20495;-31
2022/01/24 11:22:07;;;;;;;4.25;2.35;;;;;;;12.47;37.02;97927.47;5134452;27;20463;-32
2022/01/24 11:24:50;;;;;;;4.20;2.45;;;;;;;12.36;37.65;97935.75;5134447;27;20495;-31
2022/01/24 11:27:16;;;;;;;5.53;2.33;;;;;;;12.26;36.17;97928.41;5134309;27;20110;-31
2022/01/24 11:29:43;;;;;;;3.13;1.88;;;;;;;12.33;37.85;97931.09;5134391;27;20055;-31
2022/01/24 11:32:18;;;;;;;4.00;2.10;;;;;;;12.29;36.72;97929.56;5134253;27;20023;-31
2022/01/24 11:34:49;;;;;;;4.60;1.88;;;;;;;12.41;36.92;97918.19;5134209;27;20050;-31
2022/01/24 11:37:50;;;;;;;5.05;2.20;;;;;;;12.76;37.04;97917.09;5134327;27;20027;-32
2022/01/24 11:40:17;;;;;;;3.03;1.90;;;;;;;12.84;36.26;97915.84;5051053;28;20165;-32
2022/01/24 11:42:47;;;;;;;2.97;2.13;;;;;;;12.78;37.02;97904.63;5034296;28;20082;-32
2022/01/24 11:45:16;;;;;;;2.78;1.77;;;;;;;12.55;36.57;97901.75;5051296;28;20063;-31
2022/01/24 11:47:43;;;;;;;2.75;1.90;;;;;;;12.36;36.88;97913.97;5050943;28;20036;-31
2022/01/24 11:50:24;;;;;;;4.60;1.88;;;;;;;12.66;37.06;97905.13;5050938;28;20036;-32
2022/01/24 11:52:50;;;;;;;2.85;1.92;;;;;;;12.86;37.24;97905.31;5050778;28;20037;-31
2022/01/24 11:55:27;;;;;;;4.10;2.10;;;;;;;12.66;37.36;97915.25;5050764;28;20036;-32
2022/01/24 11:57:59;;;;;;;3.85;2.00;;;;;;;12.42;36.08;97909.63;5050702;28;20033;-31
2022/01/24 12:00:26;;;;;;;2.42;1.50;;;;;;;12.47;36.93;97901.06;5050844;28;20028;-31
2022/01/24 12:02:55;;;;;;;3.72;1.92;;;;;;;12.64;37.19;97904.75;5050494;28;20025;-31
2022/01/24 12:05:26;;;;;;;5.45;3.13;;;;;;;12.39;36.88;97899.56;5050944;28;20103;-31
2022/01/24 12:07:53;;;;;;;2.42;1.75;;;;;;;12.62;37.13;97904.38;5050681;28;20053;-32
2022/01/24 12:10:36;;;;;;;4.05;2.00;;;;;;;12.65;37.16;97908.25;5050733;28;20114;-31
2022/01/24 12:13:15;;;;;;;2.53;2.00;;;;;;;12.85;36.79;97901.06;5051592;28;20521;-31
2022/01/24 12:15:43;;;;;;;4.35;1.90;;;;;;;12.77;37.16;97896.84;5133847;27;20027;-31
2022/01/24 12:18:33;;;;;;;3.53;1.92;;;;;;;12.83;37.42;97900.69;5133770;27;20023;-32
2022/01/24 12:21:03;;;;;;;3.90;1.60;;;;;;;12.85;37.08;97896.41;5123604;27;20066;-32
2022/01/24 12:23:31;;;;;;;4.40;2.00;;;;;;;12.93;37.02;97891.63;5135676;27;20023;-31
2022/01/24 12:26:02;;;;;;;3.13;2.00;;;;;;;12.82;37.01;97899.16;5137543;27;20031;-32
2022/01/24 12:28:32;;;;;;;4.55;2.30;;;;;;;12.89;37.22;97894.38;5137896;27;20098;-31
2022/01/24 12:30:58;;;;;;;3.65;1.90;;;;;;;12.79;37.15;97897.22;5137617;27;20015;-33
2022/01/24 12:33:38;;;;;;;4.78;1.95;;;;;;;12.74;36.82;97890.25;5119252;27;20383;-31
2022/01/24 12:36:07;;;;;;;2.95;1.77;;;;;;;12.72;36.99;97891.88;5137637;27;20459;-31
2022/01/24 12:38:39;;;;;;;3.72;2.33;;;;;;;12.81;36.87;97892.16;5137462;27;20024;-31
2022/01/24 12:41:24;;;;;;;3.67;1.80;;;;;;;12.92;37.44;97892.81;5137291;27;20023;-31
2022/01/24 12:46:27;;;;;;;4.47;2.30;;;;;;;12.78;37.36;97893.72;5137373;27;20054;-32
2022/01/24 12:48:54;;;;;;;5.75;2.17;;;;;;;13.01;37.17;97905.94;5137444;27;20023;-31
2022/01/24 12:51:23;;;;;;;5.50;1.88;;;;;;;12.63;36.42;97905.16;5137162;27;20034;-31
2022/01/24 12:53:49;;;;;;;3.90;2.05;;;;;;;12.79;37.53;97894.50;5137040;27;20451;-31
2022/01/24 12:56:18;;;;;;;3.38;1.67;;;;;;;12.82;37.23;97899.94;5137133;27;20045;-33
2022/01/24 12:58:46;;;;;;;5.45;1.85;;;;;;;12.54;37.07;97905.66;5136952;27;20199;-31
2022/01/24 13:01:33;;;;;;;4.57;1.80;;;;;;;12.74;37.44;97900.38;5137027;27;20098;-31
2022/01/24 13:04:08;;;;;;;3.22;1.90;;;;;;;12.69;37.63;97911.72;5136917;27;20036;-31
2022/01/24 13:06:36;;;;;;;2.80;1.98;;;;;;;12.46;37.69;97910.38;5137008;27;20019;-33
2022/01/24 13:09:18;;;;;;;2.40;1.38;;;;;;;12.83;37.57;97897.97;5136925;27;20034;-31
2022/01/24 13:11:52;;;;;;;5.50;2.22;;;;;;;12.77;37.40;97897.63;5136845;27;20019;-32
2022/01/24 13:25:30;;;;;;;3.13;1.75;;;;;;;12.61;37.44;97889.22;5136584;27;20026;-31
2022/01/24 13:27:58;;;;;;;4.28;1.98;;;;;;;12.33;38.65;97895.72;5136586;27;20535;-31
2022/01/24 13:30:27;;;;;;;3.40;1.75;;;;;;;12.59;37.85;97886.16;5136376;27;20038;-32
2022/01/24 13:33:01;;;;;;;4.60;1.85;;;;;;;12.70;37.69;97896.94;5136352;27;20030;-32
2022/01/24 13:35:33;;;;;;;2.90;1.75;;;;;;;12.56;37.65;97904.06;5135155;27;20031;-32
2022/01/24 13:38:07;;;;;;;2.95;1.73;;;;;;;12.45;38.35;97897.19;5136244;27;20027;-32
2022/01/24 13:43:50;;;;;;;2.60;1.50;;;;;;;12.40;38.74;97903.81;5136151;27;20023;-32
2022/01/24 13:46:40;;;;;;;3.50;2.03;;;;;;;12.30;37.85;97901.97;5136094;27;20051;-31
2022/01/24 13:49:08;;;;;;;3.78;1.60;;;;;;;12.61;37.62;97893.94;5136274;27;20378;-31